Time;durP1;ratioP1;P1;durP2;ratioP2;P2;SDS_P1;SDS_P2;PMS_P1;PMS_P2;Temp;Humidity;BMP_temperature;BMP_pressure;BME280_temperature;BME280_humidity;BME280_pressure;Samples;Min_cycle;Max_cycle;Signal;HPM_P1;HPM_P2
2022/06/16 00:00:05;;;;;;;22.55;15.60;;;14.90;99.90;;;;;;20989018;28;20040;-58
2022/06/16 00:10:10;;;;;;;23.10;14.25;;;14.70;99.90;;;;;;20988217;28;20044;-58
2022/06/16 00:20:14;;;;;;;26.67;17.30;;;14.50;99.90;;;;;;20987109;28;20499;-58
2022/06/16 00:30:16;;;;;;;24.95;16.55;;;14.20;99.90;;;;;;20986354;28;20056;-51
2022/06/16 00:40:19;;;;;;;24.70;14.95;;;14.10;99.90;;;;;;20969025;28;20040;-52
2022/06/16 00:50:21;;;;;;;18.10;12.05;;;14.00;99.90;;;;;;20987107;28;20082;-57
2022/06/16 01:10:44;;;;;;;18.48;12.57;;;13.80;99.90;;;;;;20901758;28;20111;-53
2022/06/16 01:20:53;;;;;;;18.27;12.80;;;13.80;99.90;;;;;;20902231;28;20033;-57
2022/06/16 01:31:16;;;;;;;14.00;11.05;;;13.50;99.90;;;;;;20980608;28;20070;-57
2022/06/16 01:41:28;;;;;;;25.35;16.90;;;13.50;99.90;;;;;;21050658;28;20028;-57
2022/06/16 01:51:56;;;;;;;25.48;15.10;;;13.40;99.90;;;;;;21062066;28;20085;-57
2022/06/16 02:02:05;;;;;;;23.85;16.33;;;13.30;99.90;;;;;;21065614;28;20036;-48
2022/06/16 02:12:55;;;;;;;25.58;18.00;;;13.40;99.90;;;;;;21007151;28;20054;-57
2022/06/16 02:22:40;;;;;;;23.23;15.35;;;13.40;99.90;;;;;;20996767;28;20033;-57
2022/06/16 02:33:13;;;;;;;25.48;17.83;;;13.50;99.90;;;;;;20996276;28;20041;-57
2022/06/16 02:43:40;;;;;;;29.65;21.15;;;13.40;99.90;;;;;;20978859;28;20040;-56
2022/06/16 02:54:13;;;;;;;24.10;17.58;;;13.20;99.90;;;;;;21005393;28;20536;-58
2022/06/16 03:04:18;;;;;;;11.43;7.82;;;13.50;99.90;;;;;;21060530;28;20547;-58
2022/06/16 03:14:22;;;;;;;19.27;14.00;;;13.40;99.90;;;;;;21059991;28;20040;-57
2022/06/16 03:24:25;;;;;;;13.23;9.52;;;12.90;99.90;;;;;;21041914;28;20098;-57
2022/06/16 03:34:30;;;;;;;17.20;12.77;;;12.80;99.90;;;;;;21013399;28;20028;-57
2022/06/16 03:44:36;;;;;;;12.40;7.13;;;13.00;99.90;;;;;;20974336;28;20089;-57
2022/06/16 03:54:38;;;;;;;15.68;9.50;;;13.10;99.90;;;;;;20957131;28;20040;-57
2022/06/16 04:04:45;;;;;;;15.52;11.70;;;12.80;99.90;;;;;;20972408;28;20032;-57
2022/06/16 04:14:48;;;;;;;17.00;12.02;;;12.90;99.90;;;;;;21049664;28;20057;-57
2022/06/16 04:24:54;;;;;;;17.83;12.18;;;13.20;99.90;;;;;;21053953;28;20125;-57
2022/06/16 04:34:58;;;;;;;14.95;10.07;;;13.40;99.90;;;;;;21037865;28;20390;-58
2022/06/16 04:45:05;;;;;;;12.18;7.85;;;13.50;99.90;;;;;;21036416;28;20054;-57
2022/06/16 04:55:09;;;;;;;8.50;6.28;;;13.90;99.90;;;;;;21036916;28;20073;-57
2022/06/16 05:05:37;;;;;;;7.20;4.40;;;14.10;99.90;;;;;;20794334;28;20033;-57
2022/06/16 05:16:18;;;;;;;7.70;4.07;;;14.20;99.90;;;;;;20566756;28;20039;-58
2022/06/16 05:26:43;;;;;;;7.47;5.88;;;14.40;99.90;;;;;;20328728;29;20522;-58
2022/06/16 05:37:18;;;;;;;10.10;7.88;;;14.70;99.90;;;;;;20385715;28;20055;-57
2022/06/16 05:47:40;;;;;;;12.25;8.23;;;15.10;99.90;;;;;;20620320;28;20042;-57
2022/06/16 05:57:43;;;;;;;8.57;6.22;;;15.50;99.90;;;;;;20740631;28;20048;-59
2022/06/16 06:18:09;;;;;;;11.85;8.85;;;18.40;99.90;;;;;;21048282;28;20085;-58
2022/06/16 06:28:18;;;;;;;9.52;7.82;;;19.90;99.90;;;;;;21031155;28;20044;-58
2022/06/16 06:38:22;;;;;;;8.75;6.85;;;19.60;99.90;;;;;;21058935;28;20490;-58
2022/06/16 06:48:24;;;;;;;7.72;6.90;;;20.60;99.90;;;;;;21062012;28;20332;-56
2022/06/16 06:58:31;;;;;;;7.60;6.63;;;24.10;99.90;;;;;;21010998;28;20526;-59
2022/06/16 07:08:34;;;;;;;8.68;7.10;;;26.90;98.50;;;;;;20993732;28;20044;-59
2022/06/16 07:18:37;;;;;;;7.38;5.32;;;28.30;93.80;;;;;;20992847;28;20067;-61
2022/06/16 07:28:39;;;;;;;11.35;6.80;;;29.00;93.20;;;;;;20992013;28;20052;-62
2022/06/16 07:38:43;;;;;;;7.72;6.93;;;29.30;91.40;;;;;;21058005;28;20027;-62
2022/06/16 07:48:45;;;;;;;8.63;6.78;;;28.20;92.80;;;;;;21057294;28;20028;-63
2022/06/16 07:58:48;;;;;;;9.13;8.27;;;28.90;93.00;;;;;;21056764;28;20482;-64
2022/06/16 08:08:50;;;;;;;7.75;7.05;;;30.10;89.10;;;;;;21025689;28;20028;-63
2022/06/16 08:18:53;;;;;;;10.63;6.78;;;28.50;92.80;;;;;;20988121;28;20036;-62
2022/06/16 08:28:57;;;;;;;8.20;7.40;;;28.50;93.20;;;;;;20986759;28;20106;-62
2022/06/16 08:39:01;;;;;;;8.63;7.73;;;27.50;95.10;;;;;;20986661;28;20125;-64
2022/06/16 08:49:18;;;;;;;8.23;6.40;;;28.00;94.10;;;;;;20985970;28;20040;-63
2022/06/16 08:59:41;;;;;;;11.65;7.28;;;28.30;95.70;;;;;;21042445;28;20062;-63
2022/06/16 09:10:16;;;;;;;8.18;7.38;;;28.60;94.80;;;;;;21051960;28;20562;-63
2022/06/16 09:20:37;;;;;;;8.43;7.47;;;29.20;96.00;;;;;;21051609;28;20032;-63
2022/06/16 09:30:43;;;;;;;8.30;7.50;;;28.70;95.20;;;;;;20970586;28;20110;-63
2022/06/16 09:42:32;;;;;;;10.52;7.63;;;28.80;95.50;;;;;;20900289;28;20029;-63
2022/06/16 09:51:37;;;;;;;8.07;7.35;;;28.90;94.90;;;;;;20901121;28;20041;-61
2022/06/16 10:01:54;;;;;;;11.80;7.50;;;29.00;94.80;;;;;;20899805;28;20068;-64
2022/06/16 10:11:57;;;;;;;9.57;8.45;;;29.20;94.50;;;;;;20963753;28;20041;-63
2022/06/16 10:22:01;;;;;;;9.90;8.88;;;28.90;95.20;;;;;;21004787;28;20044;-64
2022/06/16 10:32:16;;;;;;;11.13;9.13;;;29.20;95.60;;;;;;21063830;28;20043;-63
2022/06/16 10:42:29;;;;;;;10.73;9.67;;;29.70;95.70;;;;;;21063096;28;20036;-63
2022/06/16 10:52:50;;;;;;;10.10;9.15;;;29.20;94.30;;;;;;21061085;28;20044;-55
2022/06/16 11:03:15;;;;;;;10.38;9.48;;;28.20;94.80;;;;;;20977937;28;20090;-62
2022/06/16 11:13:26;;;;;;;10.95;9.82;;;26.80;97.00;;;;;;20977359;28;20459;-63
2022/06/16 11:23:33;;;;;;;13.07;9.52;;;27.60;97.30;;;;;;20975613;28;20387;-58
2022/06/16 11:44:08;;;;;;;10.32;9.32;;;28.80;95.90;;;;;;21058398;28;20093;-64
2022/06/16 11:54:29;;;;;;;11.50;9.55;;;29.60;94.40;;;;;;21056979;28;20028;-62
2022/06/16 12:04:38;;;;;;;11.73;10.63;;;29.60;94.50;;;;;;21056368;28;20062;-62
2022/06/16 12:14:48;;;;;;;10.82;9.73;;;28.70;94.50;;;;;;20989737;28;20032;-60
2022/06/16 12:25:26;;;;;;;12.68;10.65;;;26.90;95.70;;;;;;20987166;28;20040;-60
2022/06/16 12:35:45;;;;;;;11.33;9.57;;;24.70;96.70;;;;;;20982924;28;20037;-61
2022/06/16 12:45:55;;;;;;;14.02;11.63;;;24.20;98.80;;;;;;20986422;28;20036;-60
2022/06/16 12:56:21;;;;;;;12.75;10.07;;;24.30;99.40;;;;;;21015009;28;20036;-61
2022/06/16 13:06:28;;;;;;;17.10;11.30;;;24.70;97.80;;;;;;21051930;28;20052;-62
2022/06/16 13:16:38;;;;;;;9.20;8.30;;;24.60;98.40;;;;;;21018751;28;20032;-62
2022/06/16 13:27:09;;;;;;;9.80;7.78;;;26.60;99.70;;;;;;21050519;28;20044;-63
2022/06/16 13:37:33;;;;;;;10.55;5.72;;;28.30;96.20;;;;;;20983062;28;20037;-63
2022/06/16 13:47:41;;;;;;;8.38;7.57;;;28.70;94.10;;;;;;20995653;28;20101;-63
2022/06/16 13:57:45;;;;;;;8.20;7.30;;;28.70;94.20;;;;;;20999572;28;20036;-57
2022/06/16 14:07:47;;;;;;;9.57;7.40;;;29.10;93.40;;;;;;21019605;28;20035;-58
2022/06/16 14:17:49;;;;;;;11.18;7.07;;;30.30;91.80;;;;;;21064543;28;20097;-63
2022/06/16 14:27:54;;;;;;;9.48;8.57;;;30.60;91.90;;;;;;21063907;28;20036;-62
2022/06/16 14:38:32;;;;;;;12.95;9.48;;;30.60;91.50;;;;;;20822729;28;20128;-63
2022/06/16 14:48:40;;;;;;;13.45;9.88;;;29.70;92.90;;;;;;20805213;28;20053;-63
2022/06/16 14:59:02;;;;;;;17.33;10.57;;;29.90;93.60;;;;;;20839436;28;20071;-62
2022/06/16 15:09:06;;;;;;;12.07;9.98;;;29.60;91.40;;;;;;20908875;28;20048;-60
2022/06/16 15:19:10;;;;;;;10.43;9.00;;;28.60;93.90;;;;;;20976392;28;20094;-63
2022/06/16 15:29:15;;;;;;;11.93;8.25;;;27.60;92.70;;;;;;20976252;28;20048;-60
2022/06/16 15:39:26;;;;;;;11.52;8.57;;;27.40;93.80;;;;;;21058221;28;20044;-60
2022/06/16 15:49:44;;;;;;;11.23;8.57;;;26.00;94.80;;;;;;21057610;28;20028;-61
2022/06/16 15:59:55;;;;;;;9.23;8.15;;;25.10;98.50;;;;;;21057530;28;20436;-61
2022/06/16 16:09:58;;;;;;;12.13;8.55;;;24.60;99.40;;;;;;21016963;28;20036;-61
2022/06/16 16:20:01;;;;;;;12.73;9.70;;;25.00;98.60;;;;;;20814442;28;20041;-60
2022/06/16 16:30:04;;;;;;;9.23;7.82;;;25.30;96.40;;;;;;20813608;28;20041;-60
2022/06/16 16:40:16;;;;;;;11.63;9.65;;;25.00;96.80;;;;;;20812739;28;20099;-60
2022/06/16 16:50:20;;;;;;;14.25;8.93;;;24.60;97.10;;;;;;20841421;28;20052;-60
2022/06/16 17:00:23;;;;;;;10.35;9.02;;;23.50;99.30;;;;;;21051987;28;20411;-60
2022/06/16 17:10:27;;;;;;;13.32;10.70;;;23.00;99.90;;;;;;21051384;28;20431;-60
2022/06/16 17:20:30;;;;;;;68.57;13.52;;;22.40;99.90;;;;;;21022273;28;20040;-59
2022/06/16 17:30:35;;;;;;;13.75;11.43;;;21.80;99.90;;;;;;21066176;28;20105;-59
2022/06/16 17:40:37;;;;;;;14.63;10.32;;;21.30;99.90;;;;;;20984291;28;20437;-59
2022/06/16 17:50:41;;;;;;;16.17;10.60;;;21.00;99.90;;;;;;20983241;28;20036;-59
2022/06/16 18:00:45;;;;;;;14.10;11.27;;;20.40;99.90;;;;;;20982474;28;20032;-59
2022/06/16 18:10:47;;;;;;;14.40;11.48;;;19.90;99.90;;;;;;21028408;28;20464;-58
2022/06/16 18:20:52;;;;;;;16.52;12.98;;;19.50;99.90;;;;;;21031801;28;20032;-58
2022/06/16 18:30:54;;;;;;;15.90;13.30;;;19.00;99.90;;;;;;20987217;28;20560;-58
2022/06/16 18:40:57;;;;;;;18.83;12.32;;;18.70;99.90;;;;;;20996142;28;20062;-58
2022/06/16 18:51:00;;;;;;;18.45;13.32;;;18.50;99.90;;;;;;20995356;28;20082;-58
2022/06/16 19:01:04;;;;;;;18.70;13.75;;;18.30;99.90;;;;;;20923041;28;20443;-58
2022/06/16 19:11:07;;;;;;;20.50;16.30;;;18.10;99.90;;;;;;20911369;28;20376;-58
2022/06/16 19:21:17;;;;;;;21.35;13.75;;;17.90;99.90;;;;;;20910142;28;20063;-58
2022/06/16 19:31:24;;;;;;;17.65;13.88;;;17.60;99.90;;;;;;20992176;28;20055;-54
2022/06/16 19:41:29;;;;;;;19.20;13.73;;;17.50;99.90;;;;;;20991090;28;20036;-58
2022/06/16 19:51:32;;;;;;;19.80;14.93;;;17.20;99.90;;;;;;20974199;28;20094;-58
2022/06/16 20:01:36;;;;;;;21.08;15.20;;;17.00;99.90;;;;;;20989774;28;20099;-57
2022/06/16 20:11:39;;;;;;;22.90;17.27;;;17.00;99.90;;;;;;20990061;28;20445;-58
2022/06/16 20:21:44;;;;;;;19.80;15.82;;;16.80;99.90;;;;;;20990825;28;20098;-50
2022/06/16 20:31:47;;;;;;;22.67;17.10;;;16.70;99.90;;;;;;21054464;28;20036;-58
2022/06/16 20:42:25;;;;;;;20.63;15.70;;;16.60;99.90;;;;;;21053918;28;20449;-58
2022/06/16 20:52:21;;;;;;;21.40;16.60;;;16.50;99.90;;;;;;21050296;28;20097;-58
2022/06/16 21:02:24;;;;;;;20.25;16.38;;;16.40;99.90;;;;;;20984933;28;20519;-58
2022/06/16 21:12:27;;;;;;;26.65;18.30;;;16.30;99.90;;;;;;20985073;28;20491;-58
2022/06/16 21:22:35;;;;;;;21.80;16.95;;;16.20;99.90;;;;;;20984819;28;20049;-58
2022/06/16 21:32:38;;;;;;;20.52;14.50;;;16.40;99.90;;;;;;20984052;28;20066;-58
2022/06/16 21:42:41;;;;;;;20.60;14.77;;;16.70;99.90;;;;;;21050048;28;20032;-58
2022/06/16 21:52:43;;;;;;;21.05;14.88;;;16.70;99.90;;;;;;21049731;28;20386;-58
2022/06/16 22:02:47;;;;;;;20.98;15.45;;;16.50;99.90;;;;;;21052312;28;20031;-58
2022/06/16 22:12:51;;;;;;;21.77;16.15;;;16.50;99.90;;;;;;21002281;28;20036;-58
2022/06/16 22:22:55;;;;;;;18.25;11.68;;;16.40;99.90;;;;;;20997761;28;20036;-58
2022/06/16 22:32:57;;;;;;;14.38;11.13;;;16.30;99.90;;;;;;20996705;28;20037;-58
2022/06/16 22:43:03;;;;;;;15.30;11.00;;;16.20;99.90;;;;;;20995817;28;20196;-58
2022/06/16 22:53:05;;;;;;;11.60;9.15;;;15.90;99.90;;;;;;21001418;28;20032;-52
2022/06/16 23:03:13;;;;;;;7.18;5.15;;;15.80;99.90;;;;;;21062337;28;20081;-51
2022/06/16 23:13:17;;;;;;;7.63;4.60;;;15.90;99.90;;;;;;21061260;28;20024;-49
2022/06/16 23:23:22;;;;;;;5.50;4.07;;;15.40;99.90;;;;;;21059771;28;20133;-58
2022/06/16 23:33:30;;;;;;;9.55;5.13;;;15.50;99.90;;;;;;21054823;28;20098;-58
2022/06/16 23:43:32;;;;;;;8.35;6.40;;;15.20;99.90;;;;;;20991448;28;20037;-58
2022/06/16 23:53:37;;;;;;;8.90;6.40;;;15.30;99.90;;;;;;20899535;28;20044;-58
